Terminal Aerodrome Forecast
Issued by NWS

Home | Current Version | Previous Version | Text Only | Print | Product List | Glossary On
Versions: 1 2 3 4 5 6 7 8 9 10 11 12 13 14 15
000
FTUS43 KMQT 310533
TAFSAW
TAF
KSAW 310533Z 3106/0106 25005KT P6SM SCT080
     FM311300 30012G19KT P6SM VCSH BKN060
     FM010000 29008KT P6SM VCSH BKN060
     FM010200 28004KT P6SM BKN070=

USA.gov is the U.S. government's official web portal to all federal, state and local government web resources and services.